createdAt,value
2018-05-10T00:00:09.548Z,12.90
2018-05-10T00:02:37.022Z,12.90
2018-05-10T00:05:04.530Z,12.90
2018-05-10T00:07:32.031Z,12.90
2018-05-10T00:09:59.577Z,12.80
2018-05-10T00:12:27.052Z,12.80
2018-05-10T00:14:55.418Z,12.60
2018-05-10T00:17:22.892Z,12.60
2018-05-10T00:19:51.139Z,12.50
2018-05-10T00:22:18.653Z,12.50
2018-05-10T00:24:46.135Z,12.50
2018-05-10T00:27:13.637Z,12.40
2018-05-10T00:29:41.883Z,12.30
2018-05-10T00:32:09.387Z,12.20
2018-05-10T00:34:36.872Z,12.20
2018-05-10T00:37:04.384Z,12.20
2018-05-10T00:39:32.633Z,12.20
2018-05-10T00:42:00.128Z,12.10
2018-05-10T00:44:27.622Z,12.10
2018-05-10T00:46:55.126Z,12.10
2018-05-10T00:49:22.612Z,12.00
2018-05-10T00:51:50.112Z,12.00
2018-05-10T00:54:29.457Z,12.00
2018-05-10T00:56:56.963Z,11.90
2018-05-10T00:59:24.441Z,11.90
2018-05-10T01:01:51.942Z,11.80
2018-05-10T01:04:19.424Z,11.80
2018-05-10T01:06:47.688Z,11.70
2018-05-10T01:09:15.941Z,11.70
2018-05-10T01:11:43.409Z,11.70
2018-05-10T01:14:10.905Z,11.70
2018-05-10T01:16:38.381Z,11.60
2018-05-10T01:19:05.886Z,11.60
2018-05-10T01:21:33.361Z,11.60
2018-05-10T01:24:01.649Z,11.50
2018-05-10T01:26:29.135Z,11.50
2018-05-10T01:28:56.672Z,11.50
2018-05-10T01:31:24.143Z,11.50
2018-05-10T01:33:51.652Z,11.40
2018-05-10T01:36:19.117Z,11.40
2018-05-10T01:38:47.432Z,11.40
2018-05-10T01:41:14.902Z,11.40
2018-05-10T01:43:42.414Z,11.40
2018-05-10T01:46:10.665Z,11.30
2018-05-10T01:48:38.154Z,11.30
2018-05-10T01:51:06.416Z,11.30
2018-05-10T01:53:33.921Z,11.30
2018-05-10T01:56:01.422Z,11.30
2018-05-10T01:58:28.951Z,11.30
2018-05-10T02:00:56.427Z,11.30
2018-05-10T02:03:23.899Z,11.20
2018-05-10T02:05:51.412Z,11.20
2018-05-10T02:08:18.881Z,11.20
2018-05-10T02:10:46.370Z,11.30
2018-05-10T02:13:13.848Z,11.30
2018-05-10T02:15:42.112Z,11.30
2018-05-10T02:18:09.582Z,11.30
2018-05-10T02:20:37.898Z,11.30
2018-05-10T02:23:05.416Z,11.30
2018-05-10T02:25:33.690Z,11.30
2018-05-10T02:28:01.954Z,11.40
2018-05-10T02:30:29.435Z,11.30
2018-05-10T02:32:56.907Z,11.40
2018-05-10T02:35:24.404Z,11.40
2018-05-10T02:37:51.875Z,11.40
2018-05-10T02:42:53.433Z,11.40
2018-05-10T02:45:20.941Z,11.50
2018-05-10T02:47:48.425Z,11.50
2018-05-10T02:50:15.972Z,11.40
2018-05-10T02:52:43.442Z,11.40
2018-05-10T02:55:10.920Z,11.40
2018-05-10T02:57:38.424Z,11.40
2018-05-10T03:00:06.663Z,11.30
2018-05-10T03:02:34.163Z,11.30
2018-05-10T03:05:01.626Z,11.30
2018-05-10T03:07:29.127Z,11.30
2018-05-10T03:09:56.603Z,11.20
2018-05-10T03:12:24.093Z,11.20
2018-05-10T03:14:51.568Z,11.20
2018-05-10T03:17:19.061Z,11.10
2018-05-10T03:19:46.542Z,11.20
2018-05-10T03:22:14.802Z,11.20
2018-05-10T03:24:42.286Z,11.10
2018-05-10T03:27:10.550Z,11.20
2018-05-10T03:29:38.033Z,11.20
2018-05-10T03:32:05.517Z,11.20
2018-05-10T03:34:32.984Z,11.20
2018-05-10T03:37:00.492Z,11.20
2018-05-10T03:39:28.736Z,11.40
2018-05-10T03:41:56.318Z,11.30
2018-05-10T03:44:23.717Z,11.50
2018-05-10T03:46:51.222Z,11.60
2018-05-10T03:49:18.698Z,11.70
2018-05-10T03:51:46.956Z,11.80
2018-05-10T03:54:14.496Z,11.80
2018-05-10T03:56:41.972Z,11.90
2018-05-10T03:59:09.479Z,11.90
2018-05-10T04:01:36.942Z,11.90
2018-05-10T04:07:20.786Z,12.00
2018-05-10T04:10:00.127Z,12.10
2018-05-10T04:12:27.597Z,12.10
2018-05-10T04:14:55.096Z,12.20
2018-05-10T04:17:22.584Z,12.20
2018-05-10T04:19:50.845Z,12.40
2018-05-10T04:22:19.108Z,12.40
2018-05-10T04:24:46.616Z,12.40
2018-05-10T04:27:14.094Z,12.40
2018-05-10T04:29:42.354Z,12.60
2018-05-10T04:32:09.819Z,12.60
2018-05-10T04:34:37.319Z,12.70
2018-05-10T04:37:04.782Z,12.80
2018-05-10T04:39:33.053Z,13.10
2018-05-10T04:42:00.536Z,13.10
2018-05-10T04:44:28.057Z,13.30
2018-05-10T04:46:55.535Z,13.50
2018-05-10T04:49:23.775Z,13.70
2018-05-10T04:51:51.289Z,13.60
2018-05-10T04:54:18.759Z,13.70
2018-05-10T04:56:46.272Z,13.90
2018-05-10T04:59:13.750Z,14.00
2018-05-10T05:01:41.251Z,14.10
2018-05-10T05:04:08.715Z,14.30
2018-05-10T05:06:36.229Z,14.40
2018-05-10T05:09:04.482Z,14.70
2018-05-10T05:11:32.759Z,14.90
2018-05-10T05:14:00.240Z,14.80
2018-05-10T05:16:27.748Z,15.00
2018-05-10T05:18:55.258Z,15.00
2018-05-10T05:21:23.508Z,15.10
2018-05-10T05:23:50.984Z,15.10
2018-05-10T05:26:19.260Z,15.20
2018-05-10T05:28:47.489Z,15.20
2018-05-10T05:31:15.024Z,15.20
2018-05-10T05:33:42.511Z,15.40
2018-05-10T05:36:09.979Z,15.50
2018-05-10T05:38:37.494Z,15.60
2018-05-10T05:41:05.083Z,15.60
2018-05-10T05:43:32.513Z,15.80
2018-05-10T05:46:00.722Z,15.90
2018-05-10T05:48:28.242Z,15.80
2018-05-10T05:50:55.730Z,16.00
2018-05-10T05:53:23.255Z,16.00
2018-05-10T05:55:50.739Z,16.10
2018-05-10T05:58:18.242Z,16.10
2018-05-10T06:00:46.508Z,16.20
2018-05-10T06:03:14.761Z,16.20
2018-05-10T06:05:42.261Z,16.20
2018-05-10T06:08:10.521Z,16.40
2018-05-10T06:10:38.038Z,16.30
2018-05-10T06:13:05.558Z,16.40
2018-05-10T06:15:33.896Z,16.60
2018-05-10T06:18:02.099Z,16.70
2018-05-10T06:20:30.367Z,16.70
2018-05-10T06:22:58.637Z,16.80
2018-05-10T06:25:26.141Z,16.80
2018-05-10T06:27:53.607Z,16.90
2018-05-10T06:30:21.895Z,17.10
2018-05-10T06:32:49.388Z,17.10
2018-05-10T06:35:16.903Z,17.20
2018-05-10T06:37:44.383Z,17.30
2018-05-10T06:40:11.903Z,17.20
2018-05-10T06:42:39.372Z,17.10
2018-05-10T06:45:06.894Z,17.10
2018-05-10T06:47:35.164Z,17.10
2018-05-10T06:50:03.430Z,17.20
2018-05-10T06:52:30.901Z,17.10
2018-05-10T06:54:59.180Z,17.10
2018-05-10T06:57:27.427Z,16.90
2018-05-10T06:59:54.934Z,16.90
2018-05-10T07:02:22.422Z,16.80
2018-05-10T07:04:49.935Z,16.80
2018-05-10T07:07:17.418Z,16.70
2018-05-10T07:09:45.036Z,16.60
2018-05-10T07:12:12.441Z,16.60
2018-05-10T07:14:39.952Z,16.50
2018-05-10T07:17:08.242Z,16.50
2018-05-10T07:19:35.722Z,16.50
2018-05-10T07:22:03.230Z,16.50
2018-05-10T07:24:30.736Z,16.50
2018-05-10T07:26:58.269Z,16.50
2018-05-10T07:29:26.530Z,16.60
2018-05-10T07:31:54.162Z,16.60
2018-05-10T07:34:21.668Z,16.70
2018-05-10T07:36:49.972Z,16.80
2018-05-10T07:39:17.452Z,16.80
2018-05-10T07:41:44.948Z,16.90
2018-05-10T07:44:13.230Z,17.00
2018-05-10T07:46:41.482Z,17.00
2018-05-10T07:49:09.002Z,17.00
2018-05-10T07:51:36.490Z,17.10
2018-05-10T07:54:03.995Z,17.30
2018-05-10T07:56:31.462Z,17.30
2018-05-10T07:58:58.983Z,17.40
2018-05-10T08:01:26.489Z,17.30
2018-05-10T08:03:54.002Z,17.30
2018-05-10T08:06:22.263Z,17.10
2018-05-10T08:08:49.804Z,17.00
2018-05-10T08:11:17.287Z,16.90
2018-05-10T08:13:44.809Z,16.80
2018-05-10T08:16:12.292Z,16.60
2018-05-10T08:18:39.896Z,16.40
2018-05-10T08:21:07.405Z,16.30
2018-05-10T08:23:46.719Z,16.10
2018-05-10T08:26:14.209Z,15.80
2018-05-10T08:28:41.694Z,15.60
2018-05-10T08:31:09.981Z,15.30
2018-05-10T08:33:37.481Z,15.30
2018-05-10T08:36:04.979Z,15.20
2018-05-10T08:38:33.256Z,15.00
2018-05-10T08:41:01.520Z,14.90
2018-05-10T08:43:29.765Z,14.80
2018-05-10T08:45:57.288Z,14.80
2018-05-10T08:48:24.762Z,14.80
2018-05-10T08:50:52.326Z,14.80
2018-05-10T08:53:19.814Z,14.80
2018-05-10T08:55:47.350Z,14.80
2018-05-10T08:58:14.834Z,14.80
2018-05-10T09:00:42.448Z,14.70
2018-05-10T09:03:09.949Z,14.70
2018-05-10T09:05:37.473Z,14.70
2018-05-10T09:08:04.968Z,14.70
2018-05-10T09:10:32.516Z,14.70
2018-05-10T09:13:00.014Z,14.50
2018-05-10T09:15:28.277Z,14.40
2018-05-10T09:17:56.569Z,14.30
2018-05-10T09:20:24.824Z,14.20
2018-05-10T09:22:52.395Z,14.20
2018-05-10T09:25:19.883Z,14.10
2018-05-10T09:27:47.429Z,14.00
2018-05-10T09:30:14.899Z,14.00
2018-05-10T09:32:42.445Z,14.10
2018-05-10T09:35:09.992Z,13.90
2018-05-10T09:37:38.269Z,13.90
2018-05-10T09:40:07.139Z,13.80
2018-05-10T09:42:34.657Z,13.80
2018-05-10T09:45:02.221Z,13.80
2018-05-10T09:47:29.731Z,13.80
2018-05-10T09:49:57.257Z,13.80
2018-05-10T09:52:24.808Z,13.80
2018-05-10T09:54:52.287Z,13.90
2018-05-10T09:57:19.826Z,14.10
2018-05-10T09:59:50.250Z,14.10
2018-05-10T10:02:18.573Z,14.30
2018-05-10T10:04:46.589Z,14.40
2018-05-10T10:07:14.067Z,14.50
2018-05-10T10:09:41.598Z,14.50
2018-05-10T10:12:09.174Z,14.50
2018-05-10T10:14:36.688Z,14.50
2018-05-10T10:17:04.198Z,14.40
2018-05-10T10:19:31.750Z,14.40
2018-05-10T10:21:59.226Z,14.30
2018-05-10T10:24:26.744Z,14.30
2018-05-10T10:26:54.215Z,14.30
2018-05-10T10:29:21.724Z,14.40
2018-05-10T10:31:49.971Z,14.50
2018-05-10T10:34:18.800Z,14.40
2018-05-10T10:36:46.377Z,14.60
2018-05-10T10:39:13.906Z,14.60
2018-05-10T10:41:42.134Z,14.70
2018-05-10T10:44:09.657Z,14.60
2018-05-10T10:46:37.154Z,14.70
2018-05-10T10:49:04.642Z,14.60
2018-05-10T10:51:32.140Z,14.40
2018-05-10T10:53:59.636Z,14.40
2018-05-10T10:56:27.136Z,14.40
2018-05-10T10:58:55.366Z,14.70
2018-05-10T11:01:22.879Z,14.70
2018-05-10T11:03:50.352Z,14.90
2018-05-10T11:06:17.886Z,15.10
2018-05-10T11:08:45.472Z,15.30
2018-05-10T11:11:12.985Z,15.30
2018-05-10T11:13:41.253Z,15.60
2018-05-10T11:16:08.784Z,15.60
2018-05-10T11:18:36.283Z,15.70
2018-05-10T11:21:04.567Z,16.20
2018-05-10T11:23:32.815Z,16.40
2018-05-10T11:26:00.305Z,16.30
2018-05-10T11:28:27.812Z,16.30
2018-05-10T11:30:55.345Z,16.40
2018-05-10T11:33:22.913Z,16.40
2018-05-10T11:35:50.336Z,16.60
2018-05-10T11:38:18.599Z,16.90
2018-05-10T11:40:47.057Z,17.10
2018-05-10T11:43:14.559Z,17.00
2018-05-10T11:45:42.039Z,17.20
2018-05-10T11:48:09.614Z,17.50
2018-05-10T11:50:37.105Z,17.50
2018-05-10T11:53:04.625Z,17.70
2018-05-10T11:55:32.094Z,17.80
2018-05-10T11:57:59.598Z,17.70
2018-05-10T12:00:27.833Z,17.90
2018-05-10T12:02:55.356Z,17.90
2018-05-10T12:05:22.832Z,18.00
2018-05-10T12:07:50.447Z,18.00
2018-05-10T12:10:18.691Z,18.40
2018-05-10T12:12:46.240Z,18.40
2018-05-10T12:15:13.761Z,18.60
2018-05-10T12:17:41.264Z,18.60
2018-05-10T12:20:08.745Z,18.80
2018-05-10T12:22:37.024Z,19.30
2018-05-10T12:25:05.287Z,19.50
2018-05-10T12:27:32.808Z,19.50
2018-05-10T12:30:00.308Z,19.40
2018-05-10T12:32:27.813Z,19.60
2018-05-10T12:34:55.302Z,19.80
2018-05-10T12:37:22.792Z,19.90
2018-05-10T12:39:51.064Z,19.70
2018-05-10T12:42:18.545Z,19.70
2018-05-10T12:44:46.046Z,19.60
2018-05-10T12:47:13.553Z,19.60
2018-05-10T12:49:41.056Z,19.40
2018-05-10T12:52:08.528Z,19.50
2018-05-10T12:54:36.077Z,19.40
2018-05-10T12:57:03.555Z,19.50
2018-05-10T12:59:31.067Z,19.50
2018-05-10T13:01:58.595Z,19.80
2018-05-10T13:04:26.867Z,19.90
2018-05-10T13:06:55.204Z,19.80
2018-05-10T13:09:22.627Z,19.80
2018-05-10T13:11:50.125Z,19.80
2018-05-10T13:14:17.648Z,19.60
2018-05-10T13:16:45.127Z,19.30
2018-05-10T13:19:12.651Z,19.40
2018-05-10T13:21:40.162Z,19.30
2018-05-10T13:24:07.646Z,19.10
2018-05-10T13:26:35.130Z,19.00
2018-05-10T13:29:02.682Z,18.80
2018-05-10T13:31:30.175Z,18.90
2018-05-10T13:33:57.669Z,18.60
2018-05-10T13:36:25.169Z,18.60
2018-05-10T13:38:52.673Z,18.60
2018-05-10T13:41:20.216Z,18.70
2018-05-10T13:43:47.727Z,18.80
2018-05-10T13:46:15.260Z,18.90
2018-05-10T13:48:42.730Z,19.00
2018-05-10T13:51:11.002Z,19.30
2018-05-10T13:53:38.463Z,19.30
2018-05-10T13:56:06.746Z,19.50
2018-05-10T13:58:34.985Z,19.60
2018-05-10T14:01:02.528Z,19.60
2018-05-10T14:03:30.000Z,19.70
2018-05-10T14:05:57.514Z,19.70
2018-05-10T14:08:25.094Z,19.70
2018-05-10T14:10:52.654Z,19.40
2018-05-10T14:13:27.334Z,19.60
2018-05-10T14:15:55.450Z,19.70
2018-05-10T14:18:22.944Z,20.00
2018-05-10T14:20:50.875Z,20.40
2018-05-10T14:23:20.069Z,20.80
2018-05-10T14:25:47.550Z,21.30
2018-05-10T14:28:15.064Z,21.70
2018-05-10T14:30:43.293Z,21.90
2018-05-10T14:33:10.823Z,21.90
2018-05-10T14:35:38.293Z,21.50
2018-05-10T14:38:05.809Z,21.60
2018-05-10T14:40:34.062Z,21.60
2018-05-10T14:43:01.571Z,21.60
2018-05-10T14:45:29.038Z,21.80
2018-05-10T14:47:56.535Z,21.70
2018-05-10T14:50:24.021Z,21.60
2018-05-10T14:52:51.507Z,21.90
2018-05-10T14:55:19.045Z,21.40
2018-05-10T14:57:46.518Z,21.10
2018-05-10T15:00:14.057Z,21.00
2018-05-10T15:02:42.302Z,20.80
2018-05-10T15:05:09.809Z,20.80
2018-05-10T15:07:37.296Z,20.90
2018-05-10T15:10:04.797Z,21.00
2018-05-10T15:12:33.062Z,21.10
2018-05-10T15:15:01.339Z,21.10
2018-05-10T15:17:29.580Z,20.80
2018-05-10T15:19:57.089Z,20.70
2018-05-10T15:22:25.334Z,20.40
2018-05-10T15:24:52.834Z,20.40
2018-05-10T15:27:20.318Z,20.20
2018-05-10T15:29:47.818Z,20.10
2018-05-10T15:32:15.304Z,19.90
2018-05-10T15:34:42.832Z,19.60
2018-05-10T15:37:10.324Z,19.10
2018-05-10T15:39:37.802Z,18.60
2018-05-10T15:42:05.323Z,18.40
2018-05-10T15:44:33.569Z,18.00
2018-05-10T15:47:01.073Z,18.00
2018-05-10T15:49:28.634Z,17.90
2018-05-10T15:51:56.106Z,17.90
2018-05-10T15:54:23.567Z,17.90
2018-05-10T15:56:51.067Z,17.70
2018-05-10T15:59:18.651Z,17.80
2018-05-10T16:01:46.100Z,18.00
2018-05-10T16:04:13.560Z,18.10
2018-05-10T16:06:41.877Z,18.40
2018-05-10T16:09:09.318Z,18.30
2018-05-10T16:11:36.825Z,18.50
2018-05-10T16:14:04.301Z,18.40
2018-05-10T16:16:32.597Z,18.30
2018-05-10T16:19:00.061Z,18.30
2018-05-10T16:21:27.528Z,18.30
2018-05-10T16:23:55.041Z,18.30
2018-05-10T16:26:22.556Z,18.30
2018-05-10T16:28:50.040Z,18.00
2018-05-10T16:31:17.522Z,18.10
2018-05-10T16:33:45.783Z,18.30
2018-05-10T16:36:13.251Z,18.20
2018-05-10T16:38:40.763Z,18.30
2018-05-10T16:41:08.244Z,18.30
2018-05-10T16:43:35.774Z,18.30
2018-05-10T16:46:03.260Z,18.40
2018-05-10T16:48:31.524Z,18.40
2018-05-10T16:50:59.013Z,18.40
2018-05-10T16:53:26.609Z,18.50
2018-05-10T16:55:53.996Z,18.40
2018-05-10T16:58:21.497Z,18.50
2018-05-10T17:00:49.736Z,18.20
2018-05-10T17:03:17.250Z,18.20
2018-05-10T17:05:45.502Z,18.00
2018-05-10T17:08:13.039Z,18.00
2018-05-10T17:10:40.580Z,17.90
2018-05-10T17:13:08.047Z,17.60
2018-05-10T17:15:35.544Z,17.50
2018-05-10T17:18:03.805Z,17.30
2018-05-10T17:20:31.392Z,17.30
2018-05-10T17:22:58.868Z,17.30
2018-05-10T17:25:26.361Z,17.30
2018-05-10T17:27:54.093Z,17.40
2018-05-10T17:30:21.609Z,17.30
2018-05-10T17:32:49.107Z,17.30
2018-05-10T17:35:16.628Z,17.30
2018-05-10T17:37:44.137Z,17.30
2018-05-10T17:40:11.635Z,17.40
2018-05-10T17:42:39.127Z,17.50
2018-05-10T17:45:06.645Z,17.40
2018-05-10T17:47:34.115Z,17.40
2018-05-10T17:50:01.600Z,17.40
2018-05-10T17:52:29.111Z,17.30
2018-05-10T17:54:56.601Z,17.30
2018-05-10T17:57:24.867Z,17.20
2018-05-10T17:59:52.349Z,17.20
2018-05-10T18:02:19.867Z,17.10
2018-05-10T18:04:47.342Z,16.90
2018-05-10T18:07:15.654Z,16.80
2018-05-10T18:09:43.896Z,16.70
2018-05-10T18:12:12.182Z,16.80
2018-05-10T18:14:40.448Z,16.80
2018-05-10T18:17:07.980Z,16.80
2018-05-10T18:19:35.444Z,16.70
2018-05-10T18:22:02.962Z,16.70
2018-05-10T18:24:30.455Z,16.60
2018-05-10T18:26:57.973Z,16.50
2018-05-10T18:29:25.464Z,16.40
2018-05-10T18:31:52.980Z,16.40
2018-05-10T18:34:20.515Z,16.40
2018-05-10T18:36:48.764Z,16.30
2018-05-10T18:39:16.301Z,16.30
2018-05-10T18:41:43.812Z,16.20
2018-05-10T18:44:12.100Z,16.20
2018-05-10T18:46:39.586Z,16.10
2018-05-10T18:49:07.893Z,16.00
2018-05-10T18:51:35.366Z,16.00
2018-05-10T18:54:02.867Z,15.90
2018-05-10T18:56:30.354Z,15.80
2018-05-10T18:58:57.872Z,15.70
2018-05-10T19:01:25.382Z,15.60
2018-05-10T19:03:52.904Z,15.50
2018-05-10T19:06:20.392Z,15.30
2018-05-10T19:08:47.932Z,15.20
2018-05-10T19:11:15.432Z,15.10
2018-05-10T19:13:42.921Z,15.00
2018-05-10T19:16:10.431Z,14.90
2018-05-10T19:18:37.953Z,14.80
2018-05-10T19:21:05.433Z,14.70
2018-05-10T19:23:32.909Z,14.70
2018-05-10T19:26:00.406Z,14.60
2018-05-10T19:28:27.875Z,14.60
2018-05-10T19:30:55.399Z,14.50
2018-05-10T19:33:22.862Z,14.50
2018-05-10T19:35:51.172Z,14.50
2018-05-10T19:38:18.713Z,14.50
2018-05-10T19:40:46.967Z,14.60
2018-05-10T19:43:14.446Z,14.50
2018-05-10T19:45:42.880Z,14.60
2018-05-10T19:48:10.457Z,14.50
2018-05-10T19:50:37.949Z,14.60
2018-05-10T19:53:05.541Z,14.60
2018-05-10T19:55:33.034Z,14.60
2018-05-10T19:58:00.548Z,14.60
2018-05-10T20:00:28.012Z,14.60
2018-05-10T20:02:55.535Z,14.60
2018-05-10T20:05:23.769Z,14.60
2018-05-10T20:07:51.280Z,14.60
2018-05-10T20:10:18.764Z,14.70
2018-05-10T20:12:46.263Z,14.60
2018-05-10T20:15:13.731Z,14.60
2018-05-10T20:17:42.009Z,14.60
2018-05-10T20:20:10.253Z,14.60
2018-05-10T20:22:37.782Z,14.50
2018-05-10T20:25:05.258Z,14.60
2018-05-10T20:27:32.769Z,14.50
2018-05-10T20:30:01.049Z,14.40
2018-05-10T20:32:28.576Z,14.40
2018-05-10T20:34:56.036Z,14.40
2018-05-10T20:37:23.529Z,14.30
2018-05-10T20:39:51.031Z,14.30
2018-05-10T20:42:18.512Z,14.30
2018-05-10T20:44:46.069Z,14.20
2018-05-10T20:47:13.534Z,14.20
2018-05-10T20:49:41.819Z,14.10
2018-05-10T20:52:10.064Z,14.00
2018-05-10T20:54:38.371Z,14.00
2018-05-10T20:57:06.617Z,13.90
2018-05-10T20:59:34.144Z,13.90
2018-05-10T21:02:01.603Z,13.80
2018-05-10T21:04:29.147Z,13.80
2018-05-10T21:06:56.634Z,13.70
2018-05-10T21:09:24.127Z,13.60
2018-05-10T21:11:52.377Z,13.40
2018-05-10T21:14:19.905Z,13.40
2018-05-10T21:16:47.387Z,13.30
2018-05-10T21:19:14.866Z,13.20
2018-05-10T21:21:42.400Z,13.20
2018-05-10T21:24:09.860Z,13.10
2018-05-10T21:26:37.358Z,13.00
2018-05-10T21:29:04.820Z,13.00
2018-05-10T21:31:33.107Z,12.90
2018-05-10T21:34:00.602Z,12.90
2018-05-10T21:36:28.117Z,12.80
2018-05-10T21:38:56.356Z,12.70
2018-05-10T21:41:23.849Z,12.70
2018-05-10T21:43:51.324Z,12.70
2018-05-10T21:46:18.857Z,12.70
2018-05-10T21:48:47.110Z,12.60
2018-05-10T21:51:14.610Z,12.60
2018-05-10T21:53:42.082Z,12.60
2018-05-10T21:56:09.623Z,12.60
2018-05-10T21:58:37.104Z,12.60
2018-05-10T22:01:04.663Z,12.50
2018-05-10T22:03:32.193Z,12.50
2018-05-10T22:06:00.446Z,12.50
2018-05-10T22:08:27.952Z,12.40
2018-05-10T22:10:55.414Z,12.40
2018-05-10T22:13:22.917Z,12.30
2018-05-10T22:15:50.394Z,12.30
2018-05-10T22:18:18.697Z,12.10
2018-05-10T22:20:46.176Z,12.10
2018-05-10T22:23:13.766Z,12.00
2018-05-10T22:25:41.256Z,11.90
2018-05-10T22:28:08.756Z,11.80
2018-05-10T22:30:36.223Z,11.80
2018-05-10T22:33:03.722Z,11.70
2018-05-10T22:35:32.049Z,11.50
2018-05-10T22:37:59.453Z,11.50
2018-05-10T22:40:27.714Z,11.40
2018-05-10T22:42:55.982Z,11.30
2018-05-10T22:45:23.445Z,11.30
2018-05-10T22:47:50.920Z,11.30
2018-05-10T22:50:19.223Z,11.30
2018-05-10T22:52:46.703Z,11.20
2018-05-10T22:55:14.202Z,11.20
2018-05-10T22:57:42.457Z,11.20
2018-05-10T23:00:09.954Z,11.20
2018-05-10T23:02:37.430Z,11.20
2018-05-10T23:05:04.943Z,11.20
2018-05-10T23:07:32.428Z,11.20
2018-05-10T23:09:59.933Z,11.10
2018-05-10T23:12:27.423Z,11.10
2018-05-10T23:14:55.715Z,10.90
2018-05-10T23:17:23.970Z,10.80
2018-05-10T23:19:51.494Z,10.80
2018-05-10T23:22:19.741Z,10.60
2018-05-10T23:24:47.360Z,10.60
2018-05-10T23:27:14.842Z,10.50
2018-05-10T23:29:43.112Z,10.30
2018-05-10T23:32:10.596Z,10.30
2018-05-10T23:34:38.070Z,10.20
2018-05-10T23:37:05.619Z,10.10
2018-05-10T23:39:33.104Z,10.10
2018-05-10T23:42:00.604Z,10.00
2018-05-10T23:44:28.833Z,9.90
2018-05-10T23:46:56.354Z,9.90
2018-05-10T23:49:23.822Z,9.90
2018-05-10T23:51:51.332Z,9.80
2018-05-10T23:54:18.807Z,9.80
2018-05-10T23:56:47.069Z,9.70
2018-05-10T23:59:14.589Z,9.70
